createdAt,value
2017-08-17T00:01:07.277Z,0
2017-08-17T00:02:17.555Z,0
2017-08-17T00:03:27.840Z,0
2017-08-17T00:04:38.110Z,0
2017-08-17T00:05:48.401Z,0
2017-08-17T00:06:58.683Z,0
2017-08-17T00:08:08.639Z,0
2017-08-17T00:09:18.912Z,0
2017-08-17T00:10:29.187Z,0
2017-08-17T00:11:39.145Z,0
2017-08-17T00:12:49.415Z,0
2017-08-17T00:13:59.056Z,0
2017-08-17T00:15:09.330Z,0
2017-08-17T00:16:19.612Z,0
2017-08-17T00:17:29.888Z,0
2017-08-17T00:18:40.167Z,0
2017-08-17T00:19:50.445Z,0
2017-08-17T00:21:00.871Z,0
2017-08-17T00:22:10.829Z,0
2017-08-17T00:23:21.098Z,0
2017-08-17T00:24:31.371Z,0
2017-08-17T00:25:41.354Z,0
2017-08-17T00:26:51.312Z,0
2017-08-17T00:28:01.596Z,0
2017-08-17T00:29:11.552Z,0
2017-08-17T00:30:21.510Z,0
2017-08-17T00:31:31.782Z,0
2017-08-17T00:32:41.430Z,0
2017-08-17T00:33:51.398Z,0
2017-08-17T00:35:01.674Z,0
2017-08-17T00:36:11.951Z,0
2017-08-17T00:37:21.907Z,0
2017-08-17T00:38:31.869Z,0
2017-08-17T00:39:42.150Z,0
2017-08-17T00:40:52.430Z,0
2017-08-17T00:42:02.385Z,0
2017-08-17T00:43:12.037Z,0
2017-08-17T00:44:21.994Z,0
2017-08-17T00:45:32.267Z,0
2017-08-17T00:46:42.224Z,0
2017-08-17T00:47:51.868Z,0
2017-08-17T00:49:01.822Z,0
2017-08-17T00:50:12.100Z,0
2017-08-17T00:51:22.056Z,0
2017-08-17T00:52:32.330Z,0
2017-08-17T00:53:42.608Z,0
2017-08-17T00:54:52.565Z,0
2017-08-17T00:56:02.846Z,0
2017-08-17T00:57:13.130Z,0
2017-08-17T00:58:23.087Z,0
2017-08-17T00:59:33.041Z,0
2017-08-17T01:00:43.313Z,0
2017-08-17T01:01:53.586Z,0
2017-08-17T01:03:03.546Z,0
2017-08-17T01:04:13.510Z,0
2017-08-17T01:05:23.781Z,0
2017-08-17T01:06:34.052Z,0
2017-08-17T01:07:44.324Z,0
2017-08-17T01:08:54.282Z,0
2017-08-17T01:10:03.922Z,0
2017-08-17T01:11:14.197Z,0
2017-08-17T01:12:23.838Z,0
2017-08-17T01:13:33.798Z,0
2017-08-17T01:14:44.096Z,0
2017-08-17T01:15:54.370Z,0
2017-08-17T01:17:04.329Z,0
2017-08-17T01:18:14.287Z,0
2017-08-17T01:19:23.928Z,0
2017-08-17T01:20:33.895Z,0
2017-08-17T01:21:43.852Z,0
2017-08-17T01:22:53.813Z,0
2017-08-17T01:24:04.088Z,0
2017-08-17T01:25:14.042Z,0
2017-08-17T01:26:24.322Z,0
2017-08-17T01:27:34.285Z,0
2017-08-17T01:28:44.566Z,0
2017-08-17T01:29:54.843Z,0
2017-08-17T01:31:05.115Z,0
2017-08-17T01:32:15.078Z,0
2017-08-17T01:33:25.034Z,0
2017-08-17T01:34:34.998Z,0
2017-08-17T01:35:44.953Z,0
2017-08-17T01:36:54.909Z,0
2017-08-17T01:38:05.188Z,0
2017-08-17T01:39:15.463Z,0
2017-08-17T01:40:25.420Z,0
2017-08-17T01:41:35.377Z,0
2017-08-17T01:42:45.335Z,0
2017-08-17T01:43:55.605Z,0
2017-08-17T01:45:05.875Z,0
2017-08-17T01:46:15.839Z,0
2017-08-17T01:47:26.119Z,0
2017-08-17T01:48:35.449Z,0
2017-08-17T01:49:45.726Z,0
2017-08-17T01:50:56.007Z,0
2017-08-17T01:52:06.281Z,0
2017-08-17T01:53:16.554Z,0
2017-08-17T01:54:26.825Z,0
2017-08-17T01:55:36.466Z,0
2017-08-17T01:56:46.418Z,0
2017-08-17T01:57:56.696Z,0
2017-08-17T01:59:06.653Z,0
2017-08-17T02:00:16.611Z,0
2017-08-17T02:01:26.885Z,0
2017-08-17T02:02:36.525Z,0
2017-08-17T02:03:46.794Z,0
2017-08-17T02:04:57.065Z,0
2017-08-17T02:06:07.337Z,0
2017-08-17T02:07:17.616Z,0
2017-08-17T02:08:27.574Z,0
2017-08-17T02:09:37.533Z,0
2017-08-17T02:10:47.493Z,0
2017-08-17T02:11:57.763Z,0
2017-08-17T02:13:08.035Z,0
2017-08-17T02:14:18.305Z,0
2017-08-17T02:15:27.637Z,0
2017-08-17T02:16:37.594Z,0
2017-08-17T02:17:47.865Z,0
2017-08-17T02:18:58.139Z,0
2017-08-17T02:20:07.789Z,0
2017-08-17T02:21:17.753Z,0
2017-08-17T02:22:27.392Z,0
2017-08-17T02:23:37.034Z,0
2017-08-17T02:24:46.995Z,0
2017-08-17T02:25:57.273Z,0
2017-08-17T02:27:07.544Z,0
2017-08-17T02:28:17.187Z,0
2017-08-17T02:29:27.143Z,0
2017-08-17T02:30:37.106Z,0
2017-08-17T02:31:47.066Z,0
2017-08-17T02:32:57.335Z,0
2017-08-17T02:34:07.604Z,0
2017-08-17T02:35:17.564Z,0
2017-08-17T02:36:27.836Z,0
2017-08-17T02:37:38.113Z,0
2017-08-17T02:38:48.082Z,0
2017-08-17T02:39:58.041Z,0
2017-08-17T02:41:08.318Z,0
2017-08-17T02:42:18.593Z,0
2017-08-17T02:43:27.923Z,0
2017-08-17T02:44:38.198Z,0
2017-08-17T02:45:48.477Z,0
2017-08-17T02:46:58.756Z,0
2017-08-17T02:48:09.025Z,0
2017-08-17T02:49:18.984Z,0
2017-08-17T02:50:29.261Z,0
2017-08-17T02:51:39.538Z,0
2017-08-17T02:52:49.822Z,0
2017-08-17T02:54:00.099Z,0
2017-08-17T02:55:10.059Z,0
2017-08-17T02:56:20.333Z,0
2017-08-17T02:57:30.607Z,0
2017-08-17T02:58:40.887Z,0
2017-08-17T02:59:51.164Z,0
2017-08-17T03:01:01.434Z,0
2017-08-17T03:02:11.402Z,0
2017-08-17T03:03:21.674Z,0
2017-08-17T03:04:31.317Z,0
2017-08-17T03:05:41.584Z,0
2017-08-17T03:06:51.231Z,0
2017-08-17T03:08:01.500Z,0
2017-08-17T03:09:11.768Z,0
2017-08-17T03:10:22.040Z,0
2017-08-17T03:11:32.312Z,0
2017-08-17T03:12:42.612Z,0
2017-08-17T03:13:52.884Z,0
2017-08-17T03:15:03.155Z,0
2017-08-17T03:16:13.423Z,0
2017-08-17T03:17:23.378Z,0
2017-08-17T03:18:33.333Z,0
2017-08-17T03:19:42.969Z,0
2017-08-17T03:20:52.922Z,5
2017-08-17T03:22:02.878Z,5
2017-08-17T03:23:13.146Z,5
2017-08-17T03:24:23.107Z,5
2017-08-17T03:25:33.379Z,5
2017-08-17T03:26:43.649Z,5
2017-08-17T03:27:53.922Z,5
2017-08-17T03:29:04.192Z,5
2017-08-17T03:30:14.478Z,5
2017-08-17T03:31:24.450Z,5
2017-08-17T03:32:34.720Z,5
2017-08-17T03:33:45.000Z,5
2017-08-17T03:34:54.955Z,10
2017-08-17T03:36:04.910Z,10
2017-08-17T03:37:15.179Z,10
2017-08-17T03:38:25.146Z,10
2017-08-17T03:39:35.417Z,10
2017-08-17T03:40:45.372Z,10
2017-08-17T03:41:55.640Z,10
2017-08-17T03:43:05.598Z,15
2017-08-17T03:44:15.895Z,15
2017-08-17T03:45:25.850Z,15
2017-08-17T03:46:36.118Z,15
2017-08-17T03:47:46.389Z,15
2017-08-17T03:48:56.343Z,20
2017-08-17T03:50:06.626Z,20
2017-08-17T03:51:16.580Z,20
2017-08-17T03:52:26.849Z,25
2017-08-17T03:53:36.807Z,25
2017-08-17T03:54:46.770Z,25
2017-08-17T03:55:57.037Z,25
2017-08-17T03:57:07.315Z,30
2017-08-17T03:58:17.269Z,30
2017-08-17T03:59:26.908Z,30
2017-08-17T04:00:36.899Z,35
2017-08-17T04:01:46.889Z,35
2017-08-17T04:02:57.163Z,35
2017-08-17T04:04:07.432Z,35
2017-08-17T04:05:17.401Z,35
2017-08-17T04:06:27.672Z,40
2017-08-17T04:07:37.630Z,40
2017-08-17T04:08:47.900Z,40
2017-08-17T04:09:58.176Z,40
2017-08-17T04:11:07.815Z,40
2017-08-17T04:12:17.790Z,40
2017-08-17T04:13:28.060Z,40
2017-08-17T04:14:38.332Z,40
2017-08-17T04:15:48.599Z,40
2017-08-17T04:16:58.869Z,40
2017-08-17T04:18:09.139Z,40
2017-08-17T04:19:19.409Z,40
2017-08-17T04:20:29.691Z,40
2017-08-17T04:21:39.962Z,45
2017-08-17T04:22:49.922Z,45
2017-08-17T04:24:00.189Z,45
2017-08-17T04:25:10.460Z,45
2017-08-17T04:26:20.737Z,45
2017-08-17T04:27:30.699Z,45
2017-08-17T04:28:40.965Z,50
2017-08-17T04:29:51.241Z,50
2017-08-17T04:31:01.511Z,50
2017-08-17T04:32:11.801Z,50
2017-08-17T04:33:22.076Z,50
2017-08-17T04:34:32.345Z,50
2017-08-17T04:35:42.299Z,55
2017-08-17T04:36:52.571Z,55
2017-08-17T04:38:02.528Z,55
2017-08-17T04:39:12.799Z,60
2017-08-17T04:40:23.075Z,60
2017-08-17T04:41:33.347Z,65
2017-08-17T04:42:43.300Z,70
2017-08-17T04:43:53.579Z,70
2017-08-17T04:45:03.851Z,75
2017-08-17T04:46:14.121Z,75
2017-08-17T04:47:24.395Z,80
2017-08-17T04:48:34.372Z,85
2017-08-17T04:49:44.646Z,90
2017-08-17T04:50:54.601Z,90
2017-08-17T04:52:04.563Z,95
2017-08-17T04:53:14.206Z,95
2017-08-17T04:54:23.850Z,100
2017-08-17T04:55:34.119Z,100
2017-08-17T04:56:44.392Z,100
2017-08-17T04:57:54.665Z,105
2017-08-17T04:59:04.935Z,105
2017-08-17T05:00:14.904Z,120
2017-08-17T05:01:25.171Z,130
2017-08-17T05:02:34.499Z,130
2017-08-17T05:03:44.769Z,130
2017-08-17T05:04:55.042Z,130
2017-08-17T05:06:04.999Z,125
2017-08-17T05:07:14.956Z,135
2017-08-17T05:08:24.284Z,135
2017-08-17T05:09:34.559Z,125
2017-08-17T05:10:44.828Z,130
2017-08-17T05:11:54.472Z,130
2017-08-17T05:13:04.754Z,135
2017-08-17T05:14:15.024Z,140
2017-08-17T05:15:25.297Z,140
2017-08-17T05:16:35.574Z,145
2017-08-17T05:17:45.849Z,140
2017-08-17T05:18:56.120Z,145
2017-08-17T05:20:06.077Z,140
2017-08-17T05:21:16.350Z,140
2017-08-17T05:22:26.303Z,135
2017-08-17T05:23:35.949Z,130
2017-08-17T05:24:46.224Z,130
2017-08-17T05:25:56.499Z,130
2017-08-17T05:27:06.781Z,140
2017-08-17T05:28:16.741Z,145
2017-08-17T05:29:26.700Z,140
2017-08-17T05:30:36.994Z,135
2017-08-17T05:31:46.977Z,130
2017-08-17T05:32:57.247Z,125
2017-08-17T05:34:07.516Z,130
2017-08-17T05:35:17.485Z,120
2017-08-17T05:36:27.760Z,120
2017-08-17T05:37:38.031Z,120
2017-08-17T05:38:48.304Z,125
2017-08-17T05:39:58.586Z,125
2017-08-17T05:41:08.543Z,135
2017-08-17T05:42:18.810Z,125
2017-08-17T05:43:28.512Z,135
2017-08-17T05:44:38.469Z,145
2017-08-17T05:45:48.743Z,140
2017-08-17T05:46:58.701Z,140
2017-08-17T05:48:08.343Z,150
2017-08-17T05:49:18.301Z,145
2017-08-17T05:50:28.267Z,145
2017-08-17T05:51:38.229Z,145
2017-08-17T05:52:48.507Z,150
2017-08-17T05:53:58.464Z,155
2017-08-17T05:55:08.105Z,150
2017-08-17T05:56:18.068Z,150
2017-08-17T05:57:27.710Z,155
2017-08-17T05:58:37.993Z,155
2017-08-17T05:59:48.273Z,155
2017-08-17T06:00:58.548Z,155
2017-08-17T06:02:08.821Z,155
2017-08-17T06:03:18.777Z,155
2017-08-17T06:04:29.052Z,155
2017-08-17T06:05:39.329Z,160
2017-08-17T06:06:49.600Z,160
2017-08-17T06:07:59.877Z,155
2017-08-17T06:09:10.154Z,155
2017-08-17T06:10:20.426Z,165
2017-08-17T06:11:30.710Z,165
2017-08-17T06:12:40.986Z,165
2017-08-17T06:13:51.257Z,160
2017-08-17T06:15:01.530Z,145
2017-08-17T06:16:11.816Z,145
2017-08-17T06:17:22.092Z,145
2017-08-17T06:18:32.063Z,140
2017-08-17T06:19:42.332Z,140
2017-08-17T06:20:52.604Z,135
2017-08-17T06:22:02.878Z,140
2017-08-17T06:23:13.191Z,135
2017-08-17T06:24:23.469Z,135
2017-08-17T06:25:33.433Z,135
2017-08-17T06:26:43.698Z,135
2017-08-17T06:27:53.957Z,135
2017-08-17T06:29:04.227Z,135
2017-08-17T06:30:14.493Z,140
2017-08-17T06:31:24.751Z,140
2017-08-17T06:32:34.701Z,145
2017-08-17T06:33:44.973Z,150
2017-08-17T06:34:55.253Z,150
2017-08-17T06:36:05.224Z,145
2017-08-17T06:37:14.864Z,145
2017-08-17T06:38:25.137Z,150
2017-08-17T06:39:35.417Z,150
2017-08-17T06:40:45.689Z,150
2017-08-17T06:41:55.647Z,155
2017-08-17T06:43:05.610Z,155
2017-08-17T06:44:15.887Z,160
2017-08-17T06:45:26.163Z,170
2017-08-17T06:46:36.436Z,170
2017-08-17T06:47:46.079Z,165
2017-08-17T06:48:56.376Z,165
2017-08-17T06:50:06.665Z,165
2017-08-17T06:51:16.967Z,165
2017-08-17T06:52:27.240Z,170
2017-08-17T06:53:37.198Z,190
2017-08-17T06:54:47.476Z,210
2017-08-17T06:55:57.436Z,215
2017-08-17T06:57:07.080Z,215
2017-08-17T06:58:16.719Z,225
2017-08-17T06:59:26.995Z,230
2017-08-17T07:00:37.286Z,230
2017-08-17T07:01:47.250Z,235
2017-08-17T07:02:57.528Z,235
2017-08-17T07:04:08.050Z,240
2017-08-17T07:05:18.010Z,250
2017-08-17T07:06:28.284Z,270
2017-08-17T07:07:38.562Z,290
2017-08-17T07:08:48.843Z,305
2017-08-17T07:09:58.809Z,315
2017-08-17T07:11:08.773Z,320
2017-08-17T07:12:18.733Z,305
2017-08-17T07:13:29.006Z,320
2017-08-17T07:14:39.288Z,320
2017-08-17T07:15:49.245Z,305
2017-08-17T07:16:59.535Z,305
2017-08-17T07:18:09.811Z,310
2017-08-17T07:19:19.772Z,315
2017-08-17T07:20:29.742Z,315
2017-08-17T07:21:40.024Z,300
2017-08-17T07:22:50.312Z,310
2017-08-17T07:24:00.270Z,305
2017-08-17T07:25:10.341Z,295
2017-08-17T07:26:20.618Z,280
2017-08-17T07:27:29.944Z,305
2017-08-17T07:28:40.221Z,310
2017-08-17T07:29:50.182Z,330
2017-08-17T07:31:00.456Z,355
2017-08-17T07:32:10.417Z,350
2017-08-17T07:33:20.390Z,335
2017-08-17T07:34:30.350Z,310
2017-08-17T07:35:40.626Z,310
2017-08-17T07:36:50.587Z,310
2017-08-17T07:38:00.872Z,350
2017-08-17T07:39:11.147Z,340
2017-08-17T07:40:21.421Z,370
2017-08-17T07:41:31.379Z,385
2017-08-17T07:42:41.024Z,375
2017-08-17T07:43:50.988Z,360
2017-08-17T07:45:01.265Z,335
2017-08-17T07:46:11.538Z,305
2017-08-17T07:47:21.188Z,300
2017-08-17T07:48:31.465Z,315
2017-08-17T07:49:41.741Z,330
2017-08-17T07:50:52.017Z,360
2017-08-17T07:52:02.292Z,345
2017-08-17T07:53:12.563Z,330
2017-08-17T07:54:22.843Z,330
2017-08-17T07:55:33.119Z,380
2017-08-17T07:56:43.079Z,415
2017-08-17T07:57:53.365Z,420
2017-08-17T07:59:03.640Z,410
2017-08-17T08:00:13.916Z,395
2017-08-17T08:01:24.212Z,385
2017-08-17T08:02:34.172Z,405
2017-08-17T08:03:44.446Z,400
2017-08-17T08:04:54.410Z,410
2017-08-17T08:06:04.691Z,390
2017-08-17T08:07:14.663Z,395
2017-08-17T08:08:24.944Z,380
2017-08-17T08:09:35.221Z,350
2017-08-17T08:10:45.187Z,320
2017-08-17T08:11:55.178Z,295
2017-08-17T08:13:05.140Z,295
2017-08-17T08:14:15.200Z,295
2017-08-17T08:15:25.482Z,300
2017-08-17T08:16:35.762Z,295
2017-08-17T08:17:46.036Z,330
2017-08-17T08:18:56.335Z,370
2017-08-17T08:20:06.295Z,385
2017-08-17T08:21:15.962Z,410
2017-08-17T08:22:26.242Z,410
2017-08-17T08:23:36.515Z,420
2017-08-17T08:24:46.506Z,430
2017-08-17T08:25:56.791Z,405
2017-08-17T08:27:07.085Z,390
2017-08-17T08:28:17.362Z,395
2017-08-17T08:29:27.324Z,395
2017-08-17T08:30:36.971Z,410
2017-08-17T08:31:50.921Z,420
2017-08-17T08:33:01.197Z,425
2017-08-17T08:34:11.184Z,445
2017-08-17T08:35:21.147Z,430
2017-08-17T08:36:31.433Z,445
2017-08-17T08:37:41.393Z,420
2017-08-17T08:38:51.673Z,410
2017-08-17T08:40:01.982Z,420
2017-08-17T08:41:11.945Z,375
2017-08-17T08:42:21.905Z,345
2017-08-17T08:43:31.866Z,350
2017-08-17T08:44:41.827Z,390
2017-08-17T08:45:51.956Z,425
2017-08-17T08:47:02.236Z,435
2017-08-17T08:48:12.515Z,480
2017-08-17T08:49:22.792Z,495
2017-08-17T08:50:32.760Z,505
2017-08-17T08:51:43.037Z,515
2017-08-17T08:52:53.315Z,490
2017-08-17T08:54:02.968Z,530
2017-08-17T08:55:12.615Z,525
2017-08-17T08:56:22.899Z,420
2017-08-17T08:57:32.862Z,370
2017-08-17T08:58:42.824Z,365
2017-08-17T08:59:52.474Z,375
2017-08-17T09:01:02.121Z,395
2017-08-17T09:02:12.098Z,380
2017-08-17T09:03:22.374Z,340
2017-08-17T09:04:32.337Z,345
2017-08-17T09:05:42.618Z,395
2017-08-17T09:06:52.265Z,415
2017-08-17T09:08:02.227Z,425
2017-08-17T09:09:12.506Z,445
2017-08-17T09:10:22.469Z,440
2017-08-17T09:11:32.438Z,420
2017-08-17T09:12:42.716Z,410
2017-08-17T09:13:52.365Z,395
2017-08-17T09:15:02.645Z,435
2017-08-17T09:16:12.295Z,415
2017-08-17T09:17:21.938Z,380
2017-08-17T09:18:32.216Z,400
2017-08-17T09:19:42.494Z,390
2017-08-17T09:20:52.771Z,395
2017-08-17T09:22:03.045Z,380
2017-08-17T09:23:13.322Z,400
2017-08-17T09:24:22.968Z,430
2017-08-17T09:25:33.248Z,445
2017-08-17T09:26:43.535Z,445
2017-08-17T09:27:53.820Z,430
2017-08-17T09:29:04.098Z,400
2017-08-17T09:30:14.066Z,370
2017-08-17T09:31:23.714Z,450
2017-08-17T09:32:33.682Z,430
2017-08-17T09:33:43.960Z,405
2017-08-17T09:34:53.921Z,430
2017-08-17T09:36:04.202Z,445
2017-08-17T09:37:14.482Z,405
2017-08-17T09:38:24.759Z,390
2017-08-17T09:39:35.040Z,410
2017-08-17T09:40:45.012Z,395
2017-08-17T09:41:55.300Z,430
2017-08-17T09:43:05.263Z,430
2017-08-17T09:44:15.245Z,415
2017-08-17T09:45:25.208Z,385
2017-08-17T09:46:35.193Z,395
2017-08-17T09:47:45.182Z,370
2017-08-17T09:48:55.150Z,395
2017-08-17T09:50:05.427Z,405
2017-08-17T09:51:15.390Z,350
2017-08-17T09:52:25.672Z,325
2017-08-17T09:53:35.006Z,350
2017-08-17T09:54:44.660Z,325
2017-08-17T09:55:54.628Z,300
2017-08-17T09:57:04.905Z,360
2017-08-17T09:58:14.866Z,360
2017-08-17T09:59:25.141Z,395
2017-08-17T10:00:35.106Z,405
2017-08-17T10:01:45.099Z,425
2017-08-17T10:02:55.062Z,425
2017-08-17T10:04:05.032Z,410
2017-08-17T10:05:15.001Z,390
2017-08-17T10:06:24.965Z,385
2017-08-17T10:07:34.618Z,385
2017-08-17T10:08:44.893Z,400
2017-08-17T10:09:55.172Z,425
2017-08-17T10:11:05.138Z,415
2017-08-17T10:12:15.428Z,415
2017-08-17T10:13:25.704Z,415
2017-08-17T10:14:35.672Z,405
2017-08-17T10:15:45.323Z,455
2017-08-17T10:16:55.602Z,420
2017-08-17T10:18:05.879Z,405
2017-08-17T10:19:15.841Z,395
2017-08-17T10:20:25.811Z,400
2017-08-17T10:21:35.774Z,395
2017-08-17T10:22:46.055Z,385
2017-08-17T10:23:56.020Z,400
2017-08-17T10:25:05.986Z,390
2017-08-17T10:26:15.959Z,400
2017-08-17T10:27:25.607Z,360
2017-08-17T10:28:35.577Z,355
2017-08-17T10:29:45.866Z,365
2017-08-17T10:30:55.830Z,380
2017-08-17T10:32:05.481Z,400
2017-08-17T10:33:15.132Z,430
2017-08-17T10:34:25.409Z,405
2017-08-17T10:35:35.686Z,425
2017-08-17T10:36:45.337Z,400
2017-08-17T10:37:55.632Z,395
2017-08-17T10:39:05.293Z,450
2017-08-17T10:40:15.264Z,425
2017-08-17T10:41:25.551Z,470
2017-08-17T10:42:35.842Z,435
2017-08-17T10:43:46.124Z,440
2017-08-17T10:44:56.104Z,440
2017-08-17T10:46:06.077Z,440
2017-08-17T10:47:16.354Z,450
2017-08-17T10:48:25.695Z,455
2017-08-17T10:49:35.353Z,440
2017-08-17T10:50:45.631Z,450
2017-08-17T10:51:55.284Z,490
2017-08-17T10:53:05.562Z,540
2017-08-17T10:54:15.540Z,535
2017-08-17T10:55:25.190Z,505
2017-08-17T10:56:34.841Z,505
2017-08-17T10:57:45.120Z,540
2017-08-17T10:58:55.424Z,550
2017-08-17T11:00:05.408Z,575
2017-08-17T11:01:15.894Z,575
2017-08-17T11:02:26.175Z,520
2017-08-17T11:03:36.141Z,495
2017-08-17T11:04:46.106Z,490
2017-08-17T11:05:56.387Z,500
2017-08-17T11:07:06.664Z,515
2017-08-17T11:08:16.941Z,560
2017-08-17T11:09:27.224Z,565
2017-08-17T11:10:37.506Z,525
2017-08-17T11:11:47.792Z,495
2017-08-17T11:12:57.759Z,495
2017-08-17T11:14:07.410Z,495
2017-08-17T11:15:17.380Z,545
2017-08-17T11:16:27.669Z,605
2017-08-17T11:17:37.963Z,575
2017-08-17T11:18:47.308Z,630
2017-08-17T11:19:57.306Z,645
2017-08-17T11:21:07.585Z,650
2017-08-17T11:22:17.555Z,645
2017-08-17T11:23:27.837Z,665
2017-08-17T11:24:37.806Z,695
2017-08-17T11:25:48.103Z,790
2017-08-17T11:26:58.076Z,1285
2017-08-17T11:28:08.041Z,1650
2017-08-17T11:29:18.004Z,1440
2017-08-17T11:30:28.290Z,1340
2017-08-17T11:31:38.262Z,1370
2017-08-17T11:32:48.792Z,1275
2017-08-17T11:33:59.078Z,1395
2017-08-17T11:35:09.046Z,840
2017-08-17T11:36:19.326Z,650
2017-08-17T11:37:29.293Z,700
2017-08-17T11:38:39.260Z,755
2017-08-17T11:39:49.540Z,1530
2017-08-17T11:40:59.834Z,1655
2017-08-17T11:42:09.804Z,1575
2017-08-17T11:43:20.085Z,1455
2017-08-17T11:44:30.052Z,1465
2017-08-17T11:45:40.331Z,1405
2017-08-17T11:46:50.299Z,1415
2017-08-17T11:48:00.583Z,1230
2017-08-17T11:49:10.549Z,1010
2017-08-17T11:50:20.200Z,1200
2017-08-17T11:51:30.171Z,1300
2017-08-17T11:52:40.137Z,1735
2017-08-17T11:53:49.821Z,800
2017-08-17T11:55:00.103Z,1205
2017-08-17T11:56:10.390Z,945
2017-08-17T11:57:20.684Z,1365
2017-08-17T11:58:30.973Z,730
2017-08-17T11:59:41.267Z,1570
2017-08-17T12:00:51.243Z,1910
2017-08-17T12:02:01.527Z,1900
2017-08-17T12:03:11.818Z,985
2017-08-17T12:04:21.784Z,1080
2017-08-17T12:05:31.576Z,1025
2017-08-17T12:06:41.882Z,825
2017-08-17T12:07:52.165Z,900
2017-08-17T12:09:01.819Z,620
2017-08-17T12:10:11.784Z,600
2017-08-17T12:11:21.120Z,515
2017-08-17T12:12:31.093Z,535
2017-08-17T12:13:41.372Z,600
2017-08-17T12:14:51.651Z,950
2017-08-17T12:16:01.648Z,1005
2017-08-17T12:17:11.617Z,1040
2017-08-17T12:18:21.266Z,1255
2017-08-17T12:19:31.228Z,1730
2017-08-17T12:20:41.505Z,2065
2017-08-17T12:21:51.787Z,2110
2017-08-17T12:23:01.806Z,2340
2017-08-17T12:24:12.086Z,2435
2017-08-17T12:25:22.366Z,2155
2017-08-17T12:26:32.663Z,1855
2017-08-17T12:27:42.317Z,1645
2017-08-17T12:28:52.285Z,1170
2017-08-17T12:30:02.277Z,1055
2017-08-17T12:31:12.558Z,1285
2017-08-17T12:32:22.523Z,1340
2017-08-17T12:33:32.502Z,1855
2017-08-17T12:34:42.795Z,1535
2017-08-17T12:35:52.761Z,1480
2017-08-17T12:37:02.728Z,1255
2017-08-17T12:38:12.699Z,1170
2017-08-17T12:39:22.664Z,1180
2017-08-17T12:40:32.955Z,1240
2017-08-17T12:41:42.729Z,1295
2017-08-17T12:42:53.010Z,1010
2017-08-17T12:44:03.296Z,770
2017-08-17T12:45:13.268Z,820
2017-08-17T12:46:23.276Z,1025
2017-08-17T12:47:33.555Z,1215
2017-08-17T12:48:43.218Z,1375
2017-08-17T12:49:53.502Z,1660
2017-08-17T12:51:03.781Z,1395
2017-08-17T12:52:14.059Z,900
2017-08-17T12:53:24.344Z,825
2017-08-17T12:54:33.996Z,800
2017-08-17T12:55:44.278Z,1615
2017-08-17T12:56:54.560Z,835
2017-08-17T12:58:04.524Z,735
2017-08-17T12:59:14.174Z,675
2017-08-17T13:00:24.137Z,695
2017-08-17T13:01:34.102Z,805
2017-08-17T13:02:43.760Z,1550
2017-08-17T13:03:53.745Z,1855
2017-08-17T13:05:04.025Z,1825
2017-08-17T13:06:13.987Z,945
2017-08-17T13:07:23.642Z,800
2017-08-17T13:08:33.613Z,900
2017-08-17T13:09:43.895Z,1870
2017-08-17T13:10:54.181Z,2040
2017-08-17T13:12:04.145Z,2000
2017-08-17T13:13:13.806Z,1395
2017-08-17T13:14:23.456Z,780
2017-08-17T13:15:33.735Z,730
2017-08-17T13:16:44.023Z,625
2017-08-17T13:17:54.309Z,550
2017-08-17T13:19:04.592Z,470
2017-08-17T13:20:14.568Z,410
2017-08-17T13:21:24.227Z,375
2017-08-17T13:22:34.506Z,360
2017-08-17T13:23:44.788Z,420
2017-08-17T13:24:54.123Z,580
2017-08-17T13:26:04.094Z,455
2017-08-17T13:27:14.055Z,490
2017-08-17T13:28:23.699Z,440
2017-08-17T13:29:33.663Z,435
2017-08-17T13:30:43.632Z,405
2017-08-17T13:31:53.598Z,375
2017-08-17T13:33:03.880Z,355
2017-08-17T13:34:14.157Z,360
2017-08-17T13:35:24.124Z,365
2017-08-17T13:36:34.399Z,365
2017-08-17T13:37:44.361Z,355
2017-08-17T13:38:54.022Z,325
2017-08-17T13:40:03.674Z,300
2017-08-17T13:41:13.951Z,285
2017-08-17T13:42:23.600Z,305
2017-08-17T13:43:33.569Z,465
2017-08-17T13:44:43.546Z,390
2017-08-17T13:45:53.826Z,425
2017-08-17T13:47:03.801Z,500
2017-08-17T13:48:13.770Z,615
2017-08-17T13:49:23.739Z,970
2017-08-17T13:50:33.383Z,820
2017-08-17T13:51:43.353Z,850
2017-08-17T13:52:53.635Z,940
2017-08-17T13:54:03.912Z,940
2017-08-17T13:55:13.556Z,840
2017-08-17T13:56:23.529Z,820
2017-08-17T13:57:33.805Z,800
2017-08-17T13:58:43.767Z,870
2017-08-17T13:59:54.043Z,845
2017-08-17T14:01:04.320Z,870
2017-08-17T14:02:14.282Z,845
2017-08-17T14:03:24.245Z,825
2017-08-17T14:04:34.519Z,800
2017-08-17T14:05:44.792Z,770
2017-08-17T14:06:55.069Z,745
2017-08-17T14:08:05.366Z,715
2017-08-17T14:09:15.333Z,705
2017-08-17T14:10:25.306Z,705
2017-08-17T14:11:34.952Z,710
2017-08-17T14:12:45.235Z,700
2017-08-17T14:13:55.201Z,695
2017-08-17T14:15:05.162Z,700
2017-08-17T14:16:15.448Z,740
2017-08-17T14:17:25.436Z,785
2017-08-17T14:18:35.405Z,820
2017-08-17T14:19:45.053Z,880
2017-08-17T14:20:55.331Z,950
2017-08-17T14:22:05.297Z,935
2017-08-17T14:23:15.261Z,940
2017-08-17T14:24:25.540Z,950
2017-08-17T14:25:35.501Z,825
2017-08-17T14:26:45.151Z,945
2017-08-17T14:27:55.431Z,965
2017-08-17T14:29:05.402Z,965
2017-08-17T14:30:15.363Z,960
2017-08-17T14:31:25.016Z,940
2017-08-17T14:32:34.979Z,940
2017-08-17T14:33:44.943Z,870
2017-08-17T14:34:54.592Z,855
2017-08-17T14:36:04.869Z,820
2017-08-17T14:37:14.517Z,765
2017-08-17T14:38:24.163Z,700
2017-08-17T14:39:33.812Z,645
2017-08-17T14:40:43.770Z,585
2017-08-17T14:41:53.738Z,555
2017-08-17T14:43:03.706Z,520
2017-08-17T14:44:13.995Z,500
2017-08-17T14:45:24.268Z,475
2017-08-17T14:46:34.547Z,455
2017-08-17T14:47:44.519Z,450
2017-08-17T14:48:54.808Z,450
2017-08-17T14:50:04.768Z,455
2017-08-17T14:51:15.047Z,450
2017-08-17T14:52:24.695Z,435
2017-08-17T14:53:34.658Z,425
2017-08-17T14:54:44.940Z,420
2017-08-17T14:55:54.900Z,415
2017-08-17T14:57:05.174Z,410
2017-08-17T14:58:15.139Z,405
2017-08-17T14:59:25.099Z,400
2017-08-17T15:00:35.376Z,400
2017-08-17T15:01:45.360Z,400
2017-08-17T15:02:55.327Z,400
2017-08-17T15:04:05.354Z,400
2017-08-17T15:05:15.000Z,405
2017-08-17T15:06:24.646Z,405
2017-08-17T15:07:34.604Z,405
2017-08-17T15:08:44.574Z,405
2017-08-17T15:09:54.849Z,405
2017-08-17T15:11:04.813Z,400
2017-08-17T15:12:14.782Z,400
2017-08-17T15:13:24.747Z,400
2017-08-17T15:14:35.023Z,395
2017-08-17T15:15:44.675Z,400
2017-08-17T15:16:54.324Z,395
2017-08-17T15:18:04.605Z,385
2017-08-17T15:19:14.878Z,385
2017-08-17T15:20:24.535Z,380
2017-08-17T15:21:33.878Z,375
2017-08-17T15:22:43.524Z,365
2017-08-17T15:23:53.798Z,355
2017-08-17T15:25:04.087Z,345
2017-08-17T15:26:14.058Z,340
2017-08-17T15:27:23.703Z,325
2017-08-17T15:28:33.981Z,320
2017-08-17T15:29:43.941Z,315
2017-08-17T15:30:53.586Z,305
2017-08-17T15:32:03.859Z,300
2017-08-17T15:33:13.818Z,295
2017-08-17T15:34:23.780Z,290
2017-08-17T15:35:34.081Z,285
2017-08-17T15:36:44.360Z,280
2017-08-17T15:37:56.659Z,275
2017-08-17T15:39:06.934Z,270
2017-08-17T15:40:16.589Z,270
2017-08-17T15:41:26.862Z,270
2017-08-17T15:42:36.820Z,280
2017-08-17T15:43:46.781Z,295
2017-08-17T15:44:56.739Z,300
2017-08-17T15:46:07.018Z,305
2017-08-17T15:47:16.667Z,310
2017-08-17T15:48:26.636Z,315
2017-08-17T15:49:36.910Z,315
2017-08-17T15:50:47.196Z,310
2017-08-17T15:51:57.163Z,300
2017-08-17T15:53:07.131Z,290
2017-08-17T15:54:16.804Z,285
2017-08-17T15:55:27.081Z,275
2017-08-17T15:56:37.044Z,270
2017-08-17T15:57:47.003Z,265
2017-08-17T15:58:56.969Z,255
2017-08-17T16:00:07.246Z,245
2017-08-17T16:01:16.904Z,235
2017-08-17T16:02:27.181Z,225
2017-08-17T16:03:37.456Z,215
2017-08-17T16:04:47.422Z,210
2017-08-17T16:05:57.380Z,205
2017-08-17T16:07:07.045Z,200
2017-08-17T16:08:17.009Z,195
2017-08-17T16:09:26.654Z,190
2017-08-17T16:10:36.932Z,190
2017-08-17T16:11:46.890Z,190
2017-08-17T16:12:56.544Z,190
2017-08-17T16:14:06.506Z,185
2017-08-17T16:15:16.169Z,190
2017-08-17T16:16:26.123Z,190
2017-08-17T16:17:36.083Z,190
2017-08-17T16:18:46.062Z,195
2017-08-17T16:19:56.023Z,195